Time;durP1;ratioP1;P1;durP2;ratioP2;P2;SDS_P1;SDS_P2;PMS_P1;PMS_P2;Temp;Humidity;BMP_temperature;BMP_pressure;BME280_temperature;BME280_humidity;BME280_pressure;Samples;Min_cycle;Max_cycle;Signal;HPM_P1;HPM_P2
2022/11/10 00:02:46;;;;;;;11.08;9.08;;;12.10;99.90;;;;;;1953694;73;21097;-92
2022/11/10 00:05:55;;;;;;;9.90;8.58;;;12.20;99.90;;;;;;1947712;73;21089;-92
2022/11/10 00:09:05;;;;;;;9.13;8.00;;;12.20;99.90;;;;;;1939925;73;21124;-92
2022/11/10 00:43:59;;;;;;;11.83;8.58;;;12.10;99.90;;;;;;1985183;71;22118;-92
2022/11/10 00:47:08;;;;;;;9.45;8.30;;;12.00;99.90;;;;;;1952992;73;21093;-91
2022/11/10 00:50:18;;;;;;;9.45;8.43;;;11.90;99.90;;;;;;1996210;70;21049;-92
2022/11/10 00:53:31;;;;;;;8.73;7.83;;;11.90;99.90;;;;;;1995722;70;21057;-94
2022/11/10 00:56:42;;;;;;;7.45;5.70;;;11.80;99.90;;;;;;2027519;70;21014;-92
2022/11/10 01:02:36;;;;;;;7.45;6.75;;;11.90;99.90;;;;;;1942016;72;27960;-91
2022/11/10 01:05:46;;;;;;;5.70;4.33;;;12.10;99.90;;;;;;1873610;76;21164;-93
2022/11/10 01:08:55;;;;;;;4.45;4.05;;;12.10;99.90;;;;;;1885776;75;21322;-92
2022/11/10 01:12:05;;;;;;;5.50;4.90;;;12.00;99.90;;;;;;1906123;75;21107;-92
2022/11/10 01:18:31;;;;;;;4.50;4.00;;;11.90;99.90;;;;;;2097846;68;22060;-91
2022/11/10 01:21:42;;;;;;;8.33;7.08;;;11.90;99.90;;;;;;2047077;69;21541;-93
2022/11/10 01:45:48;;;;;;;7.05;5.62;;;12.10;99.90;;;;;;2014643;69;22109;-92
2022/11/10 02:05:21;;;;;;;6.60;5.40;;;12.10;99.90;;;;;;1942397;72;22167;-92
2022/11/10 02:08:31;;;;;;;8.40;5.42;;;12.00;99.90;;;;;;1918155;75;21123;-93
2022/11/10 02:11:42;;;;;;;6.45;5.50;;;12.00;99.90;;;;;;1918023;75;21202;-93
2022/11/10 02:14:52;;;;;;;6.47;5.33;;;12.00;99.90;;;;;;1919229;73;21089;-94
2022/11/10 02:18:01;;;;;;;5.75;5.12;;;11.80;99.90;;;;;;1918460;75;21192;-93
2022/11/10 02:21:11;;;;;;;6.25;5.33;;;11.70;99.90;;;;;;1918251;75;21082;-93
2022/11/10 02:24:20;;;;;;;7.53;5.87;;;11.70;99.90;;;;;;1886835;75;21098;-94
2022/11/10 02:42:21;;;;;;;6.92;5.37;;;11.70;99.90;;;;;;2025531;69;22161;-92
2022/11/10 02:45:30;;;;;;;6.92;5.67;;;11.50;99.90;;;;;;1981333;72;21093;-92
2022/11/10 02:48:39;;;;;;;7.60;6.17;;;11.50;99.90;;;;;;1982184;72;21035;-93
2022/11/10 02:51:49;;;;;;;6.42;5.60;;;11.50;99.90;;;;;;1982674;72;21132;-92
2022/11/10 02:54:58;;;;;;;7.20;5.75;;;11.50;99.90;;;;;;1988312;72;21027;-93
2022/11/10 02:58:07;;;;;;;6.60;5.85;;;11.50;99.90;;;;;;1989393;72;21090;-93
2022/11/10 03:01:17;;;;;;;6.87;5.90;;;11.60;99.90;;;;;;1988843;72;21168;-93
2022/11/10 03:04:27;;;;;;;6.25;5.25;;;11.50;99.90;;;;;;1989288;72;21297;-94
2022/11/10 03:07:37;;;;;;;6.50;4.97;;;11.50;99.90;;;;;;1993707;71;21805;-93
2022/11/10 03:10:46;;;;;;;6.95;5.12;;;11.50;99.90;;;;;;2017264;71;21082;-94
2022/11/10 03:13:56;;;;;;;7.12;5.33;;;11.50;99.90;;;;;;1997301;71;21178;-93
2022/11/10 03:17:07;;;;;;;8.70;5.67;;;11.60;99.90;;;;;;1981236;72;21102;-93
2022/11/10 06:45:27;;;;;;;8.25;5.62;;;11.70;99.90;;;;;;1949379;72;22225;-94
2022/11/10 06:48:35;;;;;;;6.33;5.60;;;11.80;99.90;;;;;;1885605;75;21109;-91
2022/11/10 06:51:45;;;;;;;7.03;5.55;;;11.80;99.90;;;;;;1873274;77;21045;-90
2022/11/10 06:54:54;;;;;;;7.83;5.75;;;11.80;99.90;;;;;;1884382;76;21109;-92
2022/11/10 06:58:05;;;;;;;6.62;5.25;;;11.90;99.90;;;;;;1897895;75;21092;-92
2022/11/10 07:01:18;;;;;;;10.45;5.08;;;11.90;99.90;;;;;;1894438;75;21108;-92
2022/11/10 07:07:16;;;;;;;8.25;5.28;;;11.90;99.90;;;;;;1949951;72;22194;-91
2022/11/10 07:13:05;;;;;;;7.08;4.50;;;11.90;99.90;;;;;;1947816;72;22204;-92
2022/11/10 07:16:15;;;;;;;5.90;4.40;;;11.90;99.90;;;;;;1912529;74;21096;-90
2022/11/10 07:19:26;;;;;;;4.95;4.45;;;11.90;99.90;;;;;;1911822;75;21715;-91
2022/11/10 07:27:58;;;;;;;6.22;4.97;;;11.90;99.90;;;;;;1966339;72;22288;-90
2022/11/10 07:31:07;;;;;;;5.83;4.97;;;11.90;99.90;;;;;;1908546;73;21142;-90
2022/11/10 07:34:17;;;;;;;6.42;4.65;;;11.90;99.90;;;;;;1913668;73;21083;-91
2022/11/10 07:37:26;;;;;;;6.22;5.33;;;11.90;99.90;;;;;;1908481;73;21140;-90
2022/11/10 07:40:36;;;;;;;7.25;5.00;;;11.90;99.90;;;;;;1921179;73;21139;-91
2022/11/10 07:43:45;;;;;;;5.65;5.00;;;11.90;99.90;;;;;;1923699;74;21151;-90
2022/11/10 07:46:54;;;;;;;6.50;5.65;;;12.00;99.90;;;;;;1910279;74;21140;-91
2022/11/10 07:50:04;;;;;;;7.62;5.90;;;12.00;99.90;;;;;;1918215;74;21156;-92
2022/11/10 07:53:15;;;;;;;6.85;5.55;;;12.00;99.90;;;;;;1908911;74;21105;-90
2022/11/10 07:56:25;;;;;;;6.97;5.37;;;12.00;99.90;;;;;;1893798;74;21153;-92
2022/11/10 07:59:34;;;;;;;6.10;5.50;;;12.00;99.90;;;;;;1914507;73;21039;-90
2022/11/10 08:02:43;;;;;;;8.65;5.90;;;12.10;99.90;;;;;;1934576;73;21148;-90
2022/11/10 08:05:52;;;;;;;7.78;5.87;;;12.10;99.90;;;;;;1913803;73;21152;-89
2022/11/10 08:09:01;;;;;;;7.85;6.17;;;12.10;99.90;;;;;;1897920;73;21121;-89
2022/11/10 08:12:11;;;;;;;5.95;5.20;;;12.10;99.90;;;;;;1910545;74;21568;-88
2022/11/10 08:15:20;;;;;;;6.75;5.53;;;12.20;99.90;;;;;;1873680;75;21495;-90
2022/11/10 08:18:29;;;;;;;5.80;5.12;;;12.20;99.90;;;;;;1898825;75;21646;-88
2022/11/10 08:21:40;;;;;;;6.10;5.50;;;12.20;99.90;;;;;;1892920;74;21200;-90
2022/11/10 08:24:49;;;;;;;6.70;5.47;;;12.20;99.90;;;;;;1903320;75;21094;-88
2022/11/10 08:27:59;;;;;;;7.33;5.95;;;12.20;99.90;;;;;;1928067;73;21129;-89
2022/11/10 08:31:09;;;;;;;9.30;6.08;;;12.30;99.90;;;;;;1906423;73;21104;-89
2022/11/10 08:34:18;;;;;;;8.25;6.15;;;12.30;99.90;;;;;;1913918;73;21126;-89
2022/11/10 08:37:28;;;;;;;8.80;5.92;;;12.40;99.90;;;;;;1909802;73;21160;-88
2022/11/10 08:40:38;;;;;;;6.67;5.97;;;12.60;99.90;;;;;;1926551;73;21870;-88
2022/11/10 08:43:47;;;;;;;11.15;6.45;;;12.60;99.90;;;;;;1894187;74;21184;-89
2022/11/10 08:46:56;;;;;;;6.60;5.97;;;12.70;99.90;;;;;;1932947;74;21087;-89
2022/11/10 08:50:11;;;;;;;6.67;5.83;;;12.70;99.90;;;;;;1908946;74;21176;-90
2022/11/10 08:53:24;;;;;;;8.60;5.60;;;12.80;99.90;;;;;;1907782;74;21125;-89
2022/11/10 08:56:39;;;;;;;7.58;5.62;;;12.80;99.90;;;;;;1925045;73;21179;-89
2022/11/10 08:59:48;;;;;;;7.05;6.35;;;12.90;99.90;;;;;;1915462;73;21185;-91
2022/11/10 09:03:00;;;;;;;5.75;5.15;;;12.80;99.90;;;;;;1893514;75;21600;-89
2022/11/10 09:06:10;;;;;;;7.87;5.22;;;12.80;99.90;;;;;;1925639;73;21051;-90
2022/11/10 09:09:20;;;;;;;7.20;5.50;;;13.00;99.90;;;;;;1923456;73;21163;-90
2022/11/10 09:12:32;;;;;;;7.53;6.30;;;13.10;99.90;;;;;;1907479;75;21071;-91
2022/11/10 09:15:44;;;;;;;7.30;5.72;;;13.00;99.90;;;;;;1884831;73;21660;-91
2022/11/10 09:18:53;;;;;;;9.33;6.35;;;13.00;99.90;;;;;;1912789;73;21125;-90
2022/11/10 09:22:03;;;;;;;7.33;5.67;;;13.00;99.90;;;;;;1901812;75;21188;-90
2022/11/10 09:27:51;;;;;;;6.05;5.45;;;12.80;99.90;;;;;;1932706;72;22342;-91
2022/11/10 09:31:01;;;;;;;6.30;5.70;;;12.90;99.90;;;;;;1898222;75;21164;-90
2022/11/10 09:34:11;;;;;;;7.80;6.15;;;12.90;99.90;;;;;;1886507;75;21131;-89
2022/11/10 09:37:20;;;;;;;10.70;7.30;;;13.10;99.90;;;;;;1903378;75;21086;-90
2022/11/10 09:40:34;;;;;;;8.43;7.00;;;13.20;99.90;;;;;;1868481;76;21536;-89
2022/11/10 09:43:46;;;;;;;7.62;6.40;;;13.20;99.90;;;;;;1887734;75;21090;-90
2022/11/10 09:47:03;;;;;;;7.20;6.00;;;13.30;99.90;;;;;;1909317;75;21097;-89
2022/11/10 09:50:16;;;;;;;8.15;5.80;;;13.30;99.90;;;;;;1901297;75;21094;-90
2022/11/10 09:53:29;;;;;;;6.35;5.67;;;13.30;99.90;;;;;;1884204;76;21167;-90
2022/11/10 09:56:39;;;;;;;6.85;6.15;;;13.30;99.90;;;;;;1884252;75;21118;-91
2022/11/10 09:59:49;;;;;;;6.00;5.40;;;13.30;99.90;;;;;;1895348;75;21180;-90
2022/11/10 10:03:01;;;;;;;9.23;6.08;;;13.40;99.90;;;;;;1905366;75;21063;-91
2022/11/10 10:06:13;;;;;;;8.85;5.62;;;13.50;99.90;;;;;;1897919;75;21132;-88
2022/11/10 10:09:26;;;;;;;7.67;5.72;;;13.60;99.90;;;;;;1896081;75;21101;-90
2022/11/10 10:12:45;;;;;;;5.70;5.10;;;13.60;99.90;;;;;;1849000;77;21175;-90
2022/11/10 10:16:01;;;;;;;8.73;6.85;;;13.60;99.90;;;;;;1910131;75;21103;-90
2022/11/10 10:19:19;;;;;;;6.62;5.12;;;13.60;99.90;;;;;;1889635;75;21143;-92
2022/11/10 10:22:37;;;;;;;7.30;5.37;;;13.60;99.90;;;;;;1907520;75;21562;-90
2022/11/10 10:28:44;;;;;;;9.18;6.05;;;13.70;99.90;;;;;;1955852;72;22149;-88
2022/11/10 10:31:55;;;;;;;7.78;6.20;;;13.80;99.90;;;;;;1923410;73;21110;-90
2022/11/10 10:35:05;;;;;;;6.22;5.30;;;14.00;99.90;;;;;;1927133;73;21076;-90
2022/11/10 10:38:23;;;;;;;8.23;5.20;;;14.10;99.90;;;;;;1950732;73;21117;-89
2022/11/10 10:41:36;;;;;;;6.05;5.45;;;14.20;99.90;;;;;;1925908;73;21187;-89
2022/11/10 10:47:50;;;;;;;5.92;5.28;;;14.40;99.90;;;;;;1962993;72;22243;-89
2022/11/10 10:53:51;;;;;;;6.35;4.80;;;14.40;99.90;;;;;;1951439;72;23020;-89
2022/11/10 11:00:01;;;;;;;5.60;4.60;;;14.50;99.90;;;;;;1951972;72;22579;-91
2022/11/10 11:03:15;;;;;;;4.97;4.30;;;14.60;99.90;;;;;;1942482;73;21120;-89
2022/11/10 11:06:26;;;;;;;5.40;4.70;;;14.70;99.90;;;;;;1936181;73;21195;-90
2022/11/10 11:13:17;;;;;;;7.50;4.55;;;14.90;99.90;;;;;;1944957;72;22315;-91
2022/11/10 11:19:09;;;;;;;5.15;4.40;;;15.10;99.90;;;;;;1936263;72;22146;-90
2022/11/10 11:22:31;;;;;;;4.33;3.70;;;15.20;99.90;;;;;;1896140;75;21596;-89
2022/11/10 11:25:42;;;;;;;5.55;4.00;;;15.30;99.90;;;;;;1904811;75;21086;-90
2022/11/10 11:28:58;;;;;;;5.70;4.35;;;15.30;99.90;;;;;;1889434;75;21175;-91
2022/11/10 11:32:18;;;;;;;4.00;3.33;;;15.40;99.90;;;;;;1912713;75;21109;-89
2022/11/10 11:35:32;;;;;;;6.03;3.83;;;15.40;99.90;;;;;;1915880;75;21165;-87
2022/11/10 11:38:54;;;;;;;3.95;3.35;;;15.50;99.90;;;;;;1908328;75;21108;-90
2022/11/10 11:42:09;;;;;;;5.28;3.37;;;15.60;99.90;;;;;;1917212;75;21139;-91
2022/11/10 11:45:22;;;;;;;5.05;3.27;;;15.50;99.90;;;;;;1895499;75;21114;-91
2022/11/10 11:48:51;;;;;;;6.60;4.08;;;15.60;99.90;;;;;;1895287;75;21157;-90
2022/11/10 11:52:04;;;;;;;4.50;3.77;;;15.90;99.90;;;;;;1917950;75;21112;-89
2022/11/10 11:55:21;;;;;;;5.78;4.10;;;16.00;99.90;;;;;;1896156;75;21074;-89
2022/11/10 11:58:40;;;;;;;4.87;3.83;;;16.10;99.90;;;;;;1889392;75;21434;-89
2022/11/10 12:02:06;;;;;;;4.67;4.17;;;16.10;99.90;;;;;;1884604;76;21125;-90
2022/11/10 12:05:29;;;;;;;4.28;3.50;;;16.00;99.90;;;;;;1906977;75;21113;-91
2022/11/10 12:08:41;;;;;;;4.62;3.10;;;16.00;99.90;;;;;;1885037;76;21152;-90
2022/11/10 12:12:00;;;;;;;3.42;2.72;;;16.10;99.90;;;;;;1887129;76;21126;-90
2022/11/10 12:15:18;;;;;;;5.37;3.20;;;16.10;99.90;;;;;;1898540;75;21494;-89
2022/11/10 12:18:30;;;;;;;;;;;16.10;99.90;;;;;;1893890;74;21139;-89
2022/11/10 12:37:35;;;;;;;3.33;2.42;;;16.30;99.90;;;;;;1968895;72;22205;-90
2022/11/10 12:40:47;;;;;;;4.05;2.47;;;16.20;99.90;;;;;;1940333;73;21183;-88
2022/11/10 12:44:05;;;;;;;2.25;1.72;;;16.10;99.90;;;;;;1918104;75;21177;-89
2022/11/10 12:47:17;;;;;;;3.12;2.40;;;16.00;99.90;;;;;;1917586;75;21090;-89
2022/11/10 12:50:41;;;;;;;3.15;2.37;;;16.00;99.90;;;;;;1917224;75;21229;-90
2022/11/10 12:53:51;;;;;;;2.17;1.67;;;15.90;99.90;;;;;;1917526;75;21083;-89
2022/11/10 12:57:04;;;;;;;2.02;1.62;;;16.00;99.90;;;;;;1917215;75;21111;-90
2022/11/10 13:03:18;;;;;;;2.05;1.72;;;15.90;99.90;;;;;;1972256;72;22181;-90
2022/11/10 13:06:30;;;;;;;2.67;2.05;;;15.80;99.90;;;;;;1917367;75;21160;-89
2022/11/10 13:09:42;;;;;;;4.08;1.70;;;15.70;99.90;;;;;;1917202;75;21106;-89
2022/11/10 13:13:17;;;;;;;2.05;1.55;;;15.60;99.90;;;;;;1917505;75;21035;-89
2022/11/10 13:17:11;;;;;;;2.52;1.67;;;15.50;99.90;;;;;;1939692;73;21109;-89
2022/11/10 13:25:28;;;;;;;3.55;2.00;;;15.60;99.90;;;;;;1977986;71;22123;-90
2022/11/10 13:32:45;;;;;;;2.45;1.77;;;15.70;99.90;;;;;;1949245;72;22115;-91
2022/11/10 13:35:56;;;;;;;2.80;1.90;;;15.60;99.90;;;;;;1905775;75;21184;-89
2022/11/10 13:39:23;;;;;;;2.30;1.85;;;15.50;99.90;;;;;;1905973;75;21054;-89
2022/11/10 13:42:32;;;;;;;3.45;2.20;;;15.40;99.90;;;;;;1894691;75;21160;-89
2022/11/10 13:45:43;;;;;;;2.10;1.60;;;15.40;99.90;;;;;;1894730;75;21176;-91
2022/11/10 13:49:07;;;;;;;3.55;2.98;;;15.40;99.90;;;;;;1894937;75;21200;-91
2022/11/10 13:52:21;;;;;;;2.70;2.20;;;15.30;99.90;;;;;;1895278;75;21145;-90
2022/11/10 13:55:42;;;;;;;3.65;2.45;;;15.40;99.90;;;;;;1895565;75;21192;-89
2022/11/10 13:58:51;;;;;;;1.90;1.65;;;15.50;99.90;;;;;;1897199;75;21093;-90
2022/11/10 14:02:37;;;;;;;4.62;2.02;;;15.60;99.90;;;;;;1906286;75;21096;-90
2022/11/10 14:06:12;;;;;;;2.77;1.70;;;15.60;99.90;;;;;;1903220;75;21102;-89
2022/11/10 14:09:28;;;;;;;1.75;1.32;;;15.60;99.90;;;;;;1894907;75;21138;-89
2022/11/10 14:12:41;;;;;;;2.37;1.40;;;15.50;99.90;;;;;;1906287;75;21142;-89
2022/11/10 14:15:53;;;;;;;4.35;1.90;;;15.50;99.90;;;;;;1885346;75;21123;-88
2022/11/10 14:19:07;;;;;;;2.92;1.60;;;15.50;99.90;;;;;;1919738;75;21133;-89
2022/11/10 14:22:21;;;;;;;2.25;1.40;;;15.50;99.90;;;;;;1885407;76;21094;-89
2022/11/10 14:25:35;;;;;;;2.72;1.60;;;15.40;99.90;;;;;;1884286;76;21151;-92
2022/11/10 14:28:44;;;;;;;1.87;1.77;;;15.50;99.90;;;;;;1884198;76;21179;-90
2022/11/10 14:31:54;;;;;;;2.50;2.10;;;15.50;99.90;;;;;;1913449;74;21351;-89
2022/11/10 14:35:05;;;;;;;3.47;1.37;;;15.40;99.90;;;;;;1902829;75;21533;-90
2022/11/10 14:38:21;;;;;;;2.55;1.37;;;15.40;99.90;;;;;;1890470;75;21111;-89
2022/11/10 14:41:32;;;;;;;3.02;1.60;;;15.40;99.90;;;;;;1903124;75;21067;-90
2022/11/10 14:44:41;;;;;;;2.22;1.90;;;15.40;99.90;;;;;;1904519;75;21129;-91
2022/11/10 14:47:55;;;;;;;2.08;1.82;;;15.40;99.90;;;;;;1899874;75;21103;-90
2022/11/10 14:51:07;;;;;;;2.65;1.55;;;15.30;99.90;;;;;;1871748;77;21172;-90
2022/11/10 14:54:22;;;;;;;2.05;1.45;;;15.30;99.90;;;;;;1899577;75;21059;-91
2022/11/10 14:57:31;;;;;;;2.37;1.55;;;15.20;99.90;;;;;;1899411;75;21163;-91
2022/11/10 15:00:42;;;;;;;2.65;1.60;;;15.20;99.90;;;;;;1886542;75;21072;-89
2022/11/10 15:03:52;;;;;;;2.00;1.52;;;15.10;99.90;;;;;;1898253;75;21075;-90
2022/11/10 15:07:02;;;;;;;2.47;1.87;;;15.10;99.90;;;;;;1884707;75;21124;-90
2022/11/10 15:10:18;;;;;;;2.58;1.65;;;15.10;99.90;;;;;;1893627;75;21079;-89
2022/11/10 15:13:37;;;;;;;2.67;1.65;;;15.10;99.90;;;;;;1883562;75;21260;-89
2022/11/10 15:17:02;;;;;;;2.37;1.87;;;15.10;99.90;;;;;;1871923;77;21103;-90
2022/11/10 15:20:39;;;;;;;3.50;1.50;;;15.10;99.90;;;;;;1898540;75;21102;-90
2022/11/10 15:23:53;;;;;;;2.55;2.10;;;15.10;99.90;;;;;;1903008;75;21111;-91
2022/11/10 15:27:02;;;;;;;2.47;1.55;;;15.10;99.90;;;;;;1917375;75;21168;-91
2022/11/10 15:30:23;;;;;;;2.40;1.85;;;15.00;99.90;;;;;;1886894;75;21078;-91
2022/11/10 15:33:35;;;;;;;2.90;1.80;;;15.00;99.90;;;;;;1903679;75;21114;-89
2022/11/10 15:36:45;;;;;;;1.75;1.57;;;15.00;99.90;;;;;;1884198;76;21110;-90
2022/11/10 15:40:06;;;;;;;2.85;1.70;;;15.00;99.90;;;;;;1876906;76;21109;-91
2022/11/10 15:43:20;;;;;;;2.65;1.70;;;14.90;99.90;;;;;;1883800;76;21118;-91
2022/11/10 15:46:31;;;;;;;2.08;1.52;;;14.90;99.90;;;;;;1903453;75;21176;-88
2022/11/10 15:49:42;;;;;;;3.95;1.80;;;14.90;99.90;;;;;;1902606;75;21500;-91
2022/11/10 15:52:52;;;;;;;6.28;3.65;;;14.80;99.90;;;;;;1901535;75;21148;-90
2022/11/10 15:56:02;;;;;;;9.85;5.35;;;14.80;99.90;;;;;;1884235;76;21043;-91
2022/11/10 15:59:13;;;;;;;8.13;4.15;;;14.80;99.90;;;;;;1884680;76;21059;-90
2022/11/10 16:02:24;;;;;;;7.17;3.17;;;14.80;99.90;;;;;;1899007;75;21406;-90
2022/11/10 16:05:40;;;;;;;3.27;2.55;;;14.80;99.90;;;;;;1917284;75;21124;-91
2022/11/10 16:08:56;;;;;;;3.75;2.15;;;14.70;99.90;;;;;;1902342;75;21108;-90
2022/11/10 16:12:08;;;;;;;4.53;1.85;;;14.70;99.90;;;;;;1883669;76;21141;-90
2022/11/10 16:15:20;;;;;;;4.53;1.80;;;14.70;99.90;;;;;;1898209;75;21121;-92
2022/11/10 16:18:54;;;;;;;3.35;2.25;;;14.70;99.90;;;;;;1897865;75;21124;-91
2022/11/10 16:22:12;;;;;;;4.25;2.42;;;14.70;99.90;;;;;;1899020;75;21120;-91
2022/11/10 16:25:32;;;;;;;5.55;2.25;;;14.60;99.90;;;;;;1875511;76;21158;-90
2022/11/10 16:28:50;;;;;;;2.22;2.00;;;14.60;99.90;;;;;;1885594;76;21071;-90
2022/11/10 16:32:02;;;;;;;4.15;2.37;;;14.60;99.90;;;;;;1884925;76;21107;-90
2022/11/10 16:35:17;;;;;;;5.25;2.20;;;14.60;99.90;;;;;;1884261;76;21670;-91
2022/11/10 16:38:32;;;;;;;3.80;2.20;;;14.50;99.90;;;;;;1867021;76;21439;-90
2022/11/10 16:41:55;;;;;;;4.63;2.03;;;14.50;99.90;;;;;;1884884;76;21172;-91
2022/11/10 16:45:14;;;;;;;3.30;2.35;;;14.50;99.90;;;;;;1906916;75;21118;-90
2022/11/10 16:48:24;;;;;;;;;;;14.50;99.90;;;;;;1918313;75;21157;-91
2022/11/10 16:51:38;;;;;;;3.47;2.35;;;14.50;99.90;;;;;;1906400;75;20167;-90
2022/11/10 16:54:51;;;;;;;4.33;2.20;;;14.40;99.90;;;;;;1916865;75;21123;-91
2022/11/10 16:58:04;;;;;;;3.87;2.85;;;14.30;99.90;;;;;;1916891;75;21518;-90
2022/11/10 17:01:20;;;;;;;6.78;5.33;;;14.20;99.90;;;;;;1905319;75;21110;-91
2022/11/10 17:04:49;;;;;;;9.18;6.65;;;14.20;99.90;;;;;;1880298;75;21335;-91
2022/11/10 17:08:06;;;;;;;8.18;5.47;;;14.20;99.90;;;;;;1910226;75;21134;-90
2022/11/10 17:11:19;;;;;;;6.45;4.12;;;14.20;99.90;;;;;;1894617;75;21047;-92
2022/11/10 17:14:30;;;;;;;4.58;3.40;;;14.20;99.90;;;;;;1884154;76;21102;-91
2022/11/10 17:17:42;;;;;;;5.15;3.58;;;14.20;99.90;;;;;;1883967;76;21276;-91
2022/11/10 17:20:58;;;;;;;4.95;3.80;;;14.10;99.90;;;;;;1883985;75;21203;-92
2022/11/10 17:24:37;;;;;;;5.75;3.70;;;14.10;99.90;;;;;;1883836;76;21124;-91
2022/11/10 17:27:51;;;;;;;4.53;3.77;;;14.00;99.90;;;;;;1883832;76;21085;-92
2022/11/10 17:31:25;;;;;;;5.60;3.62;;;14.00;99.90;;;;;;1891520;75;21099;-92
2022/11/10 17:34:47;;;;;;;6.37;4.53;;;13.90;99.90;;;;;;1900519;74;21168;-91
2022/11/10 17:38:19;;;;;;;6.42;4.20;;;13.90;99.90;;;;;;1907286;74;21094;-90
2022/11/10 17:41:30;;;;;;;8.48;4.78;;;13.90;99.90;;;;;;1909578;74;21144;-92
2022/11/10 17:44:43;;;;;;;6.50;5.08;;;13.80;99.90;;;;;;1909825;74;21156;-91
2022/11/10 17:48:04;;;;;;;7.12;4.60;;;13.70;99.90;;;;;;1893452;76;21062;-91
2022/11/10 17:51:22;;;;;;;3.98;3.50;;;13.70;99.90;;;;;;1893680;76;21071;-91
2022/11/10 17:54:32;;;;;;;5.85;4.40;;;13.60;99.90;;;;;;1911825;75;21197;-91
2022/11/10 17:57:50;;;;;;;5.28;3.80;;;13.60;99.90;;;;;;1899487;74;21558;-91
2022/11/10 18:01:18;;;;;;;5.55;3.58;;;13.50;99.90;;;;;;1911712;74;21066;-91
2022/11/10 18:04:34;;;;;;;5.65;4.00;;;13.40;99.90;;;;;;1926916;74;21113;-91
2022/11/10 18:07:49;;;;;;;5.35;3.62;;;13.40;99.90;;;;;;1915006;74;21443;-91
2022/11/10 18:11:02;;;;;;;5.28;3.72;;;13.30;99.90;;;;;;1916577;74;21098;-91
2022/11/10 18:14:14;;;;;;;7.60;3.98;;;13.30;99.90;;;;;;1914394;74;21062;-92
2022/11/10 18:17:25;;;;;;;7.70;4.67;;;13.20;99.90;;;;;;1903450;74;21185;-90
2022/11/10 18:20:43;;;;;;;7.45;4.78;;;13.10;99.90;;;;;;1893540;76;21164;-88
2022/11/10 18:23:55;;;;;;;7.40;5.08;;;13.10;99.90;;;;;;1913786;74;21054;-89
2022/11/10 18:27:08;;;;;;;6.92;4.60;;;13.00;99.90;;;;;;1926023;74;21172;-88
2022/11/10 18:30:22;;;;;;;5.75;4.37;;;12.90;99.90;;;;;;1893590;76;21082;-88
2022/11/10 18:33:32;;;;;;;6.95;4.72;;;12.90;99.90;;;;;;1912146;74;21128;-88
2022/11/10 18:36:51;;;;;;;7.78;5.70;;;13.00;99.90;;;;;;1893333;76;21161;-89
2022/11/10 18:40:08;;;;;;;7.47;5.33;;;13.00;99.90;;;;;;1910346;74;21091;-89
2022/11/10 18:43:19;;;;;;;7.67;5.10;;;13.00;99.90;;;;;;1893820;76;21062;-88
2022/11/10 18:46:29;;;;;;;6.95;4.72;;;12.90;99.90;;;;;;1897416;74;21099;-90
2022/11/10 18:49:39;;;;;;;8.05;4.72;;;12.80;99.90;;;;;;1911539;74;21105;-89
2022/11/10 18:52:52;;;;;;;6.87;4.60;;;12.80;99.90;;;;;;1909733;74;21650;-89
2022/11/10 18:56:02;;;;;;;7.20;4.47;;;12.80;99.90;;;;;;1926286;74;21058;-90
2022/11/10 18:59:14;;;;;;;5.65;4.37;;;12.70;99.90;;;;;;1913072;74;21097;-90
2022/11/10 19:02:26;;;;;;;7.03;4.87;;;12.70;99.90;;;;;;1912109;74;21105;-89
2022/11/10 19:05:39;;;;;;;7.12;4.33;;;12.70;99.90;;;;;;1893750;74;21121;-89
2022/11/10 19:08:49;;;;;;;5.65;3.70;;;12.60;99.90;;;;;;1913340;74;21152;-89
2022/11/10 19:12:08;;;;;;;5.90;3.80;;;12.50;99.90;;;;;;1906236;74;21124;-89
2022/11/10 19:15:23;;;;;;;4.67;3.55;;;12.40;99.90;;;;;;1907960;74;21160;-88
2022/11/10 19:18:34;;;;;;;8.90;3.80;;;12.30;99.90;;;;;;1893509;76;21074;-88
2022/11/10 19:24:29;;;;;;;7.20;4.20;;;12.20;99.90;;;;;;1947830;72;22181;-87
2022/11/10 19:27:41;;;;;;;5.53;4.15;;;12.20;99.90;;;;;;1933593;74;21107;-90
2022/11/10 19:30:50;;;;;;;5.33;4.50;;;12.20;99.90;;;;;;1916176;74;21214;-89
2022/11/10 19:34:00;;;;;;;5.08;4.15;;;12.20;99.90;;;;;;1935061;74;21110;-87
2022/11/10 19:37:10;;;;;;;5.42;3.62;;;12.10;99.90;;;;;;1904778;75;21099;-89
2022/11/10 19:40:19;;;;;;;4.40;3.08;;;12.00;99.90;;;;;;1904982;75;21155;-90
2022/11/10 19:43:30;;;;;;;6.03;3.87;;;12.10;99.90;;;;;;1905147;75;21125;-89
2022/11/10 19:46:39;;;;;;;6.25;3.70;;;12.00;99.90;;;;;;1898911;75;21099;-88
2022/11/10 19:49:49;;;;;;;7.58;4.10;;;12.00;99.90;;;;;;1925655;74;21160;-89
2022/11/10 19:52:59;;;;;;;5.80;3.52;;;11.90;99.90;;;;;;1905239;75;21125;-88
2022/11/10 19:56:12;;;;;;;6.55;4.08;;;12.00;99.90;;;;;;1923103;74;21207;-88
2022/11/10 19:59:21;;;;;;;5.58;4.97;;;11.90;99.90;;;;;;1904738;75;21091;-89
2022/11/10 20:02:30;;;;;;;4.75;3.75;;;11.80;99.90;;;;;;1904774;75;21107;-88
2022/11/10 20:05:40;;;;;;;6.55;3.95;;;11.80;99.90;;;;;;1904792;75;21573;-89
2022/11/10 20:08:50;;;;;;;4.20;3.50;;;11.70;99.90;;;;;;1904971;75;21107;-89
2022/11/10 20:12:00;;;;;;;6.28;4.30;;;11.70;99.90;;;;;;1916605;74;21164;-89
2022/11/10 20:15:10;;;;;;;6.90;5.20;;;11.70;99.90;;;;;;1904572;75;21095;-89
2022/11/10 20:18:20;;;;;;;6.08;5.00;;;11.70;99.90;;;;;;1915745;74;21181;-88
2022/11/10 20:21:30;;;;;;;7.33;4.97;;;11.70;99.90;;;;;;1907324;74;21114;-88
2022/11/10 20:24:39;;;;;;;7.47;5.00;;;11.70;99.90;;;;;;1908871;75;21375;-88
2022/11/10 20:31:05;;;;;;;7.95;5.00;;;11.70;99.90;;;;;;2051499;68;27763;-89
2022/11/10 20:34:14;;;;;;;7.15;4.47;;;11.90;99.90;;;;;;2023349;70;21116;-90
2022/11/10 20:37:24;;;;;;;6.53;4.75;;;11.90;99.90;;;;;;2023255;70;21171;-89
2022/11/10 20:40:33;;;;;;;7.83;4.65;;;11.80;99.90;;;;;;2022850;70;21062;-88
2022/11/10 20:43:44;;;;;;;8.15;5.50;;;11.80;99.90;;;;;;2002057;70;21517;-89
2022/11/10 20:46:54;;;;;;;9.48;6.25;;;11.70;99.90;;;;;;2010372;70;21054;-90
2022/11/10 20:50:04;;;;;;;6.83;5.90;;;11.70;99.90;;;;;;2011713;70;21054;-88
2022/11/10 20:53:15;;;;;;;8.33;6.22;;;11.70;99.90;;;;;;2010574;70;21147;-90
2022/11/10 20:56:33;;;;;;;9.05;6.35;;;11.70;99.90;;;;;;1998608;72;21132;-89
2022/11/10 20:59:42;;;;;;;8.63;5.60;;;11.70;99.90;;;;;;1999115;70;21094;-89
2022/11/10 21:02:51;;;;;;;7.60;5.62;;;11.70;99.90;;;;;;2020607;70;21035;-89
2022/11/10 21:06:01;;;;;;;8.85;5.25;;;11.70;99.90;;;;;;2019507;70;21097;-90
2022/11/10 21:09:11;;;;;;;7.03;5.40;;;11.60;99.90;;;;;;2015762;70;21095;-89
2022/11/10 21:15:50;;;;;;;10.47;5.07;;;11.50;99.90;;;;;;2020381;70;21475;-89
2022/11/10 21:19:00;;;;;;;8.30;5.45;;;11.50;99.90;;;;;;2015069;70;21061;-89
2022/11/10 21:22:09;;;;;;;6.42;4.85;;;11.50;99.90;;;;;;1999248;72;21154;-91
2022/11/10 21:25:19;;;;;;;6.40;4.83;;;11.50;99.90;;;;;;1998256;72;21078;-90
2022/11/10 21:28:29;;;;;;;6.95;4.47;;;11.40;99.90;;;;;;2016942;70;21070;-89
2022/11/10 21:31:38;;;;;;;5.72;4.33;;;11.40;99.90;;;;;;2005202;70;21090;-89
2022/11/10 21:34:50;;;;;;;10.80;5.15;;;11.50;99.90;;;;;;2000312;71;21038;-89
2022/11/10 21:38:00;;;;;;;9.48;5.50;;;11.50;99.90;;;;;;2006556;71;21154;-89
2022/11/10 21:41:09;;;;;;;7.50;5.90;;;11.40;99.90;;;;;;1998552;71;21071;-89
2022/11/10 21:44:19;;;;;;;8.70;6.05;;;11.40;99.90;;;;;;1984607;72;21601;-89
2022/11/10 21:50:08;;;;;;;7.33;5.50;;;11.30;99.90;;;;;;1944297;72;22118;-92
2022/11/10 21:53:18;;;;;;;7.42;5.47;;;11.30;99.90;;;;;;1884174;76;21188;-92
2022/11/10 21:56:28;;;;;;;8.70;6.67;;;11.20;99.90;;;;;;1887583;75;21225;-89
2022/11/10 22:02:18;;;;;;;8.40;5.70;;;11.10;99.90;;;;;;1944772;72;22170;-89
2022/11/10 22:20:18;;;;;;;11.22;7.25;;;11.20;99.90;;;;;;2027074;70;21135;-89
2022/11/10 22:26:12;;;;;;;7.83;6.45;;;11.10;99.90;;;;;;1949833;72;22181;-88
2022/11/10 22:29:22;;;;;;;8.65;6.12;;;11.00;99.90;;;;;;1890858;75;21102;-90
2022/11/10 22:32:33;;;;;;;7.47;5.72;;;10.90;99.90;;;;;;1895345;75;21063;-89
2022/11/10 22:35:42;;;;;;;8.13;5.97;;;10.90;99.90;;;;;;1913192;75;21171;-89
2022/11/10 22:38:52;;;;;;;7.53;5.20;;;10.90;99.90;;;;;;1891593;75;21065;-88
2022/11/10 22:45:46;;;;;;;7.37;5.35;;;10.90;99.90;;;;;;1808986;74;21124;-90
2022/11/10 22:48:55;;;;;;;8.83;5.40;;;10.80;99.90;;;;;;1894157;75;21157;-89
2022/11/10 22:52:05;;;;;;;8.73;5.30;;;10.80;99.90;;;;;;1907137;75;21537;-89
2022/11/10 22:55:15;;;;;;;10.88;5.80;;;10.80;99.90;;;;;;1906697;75;21150;-89
2022/11/10 22:58:24;;;;;;;7.60;4.60;;;10.70;99.90;;;;;;1910217;75;21160;-90
2022/11/10 23:01:37;;;;;;;10.63;5.50;;;10.70;99.90;;;;;;1894988;75;21644;-90
2022/11/10 23:04:47;;;;;;;7.10;5.05;;;10.70;99.90;;;;;;1906936;75;21051;-90
2022/11/10 23:07:57;;;;;;;8.85;5.28;;;10.70;99.90;;;;;;1895476;75;21145;-88
2022/11/10 23:11:10;;;;;;;8.25;5.35;;;10.70;99.90;;;;;;1894431;75;21164;-88
2022/11/10 23:14:19;;;;;;;6.10;5.12;;;10.60;99.90;;;;;;1906888;75;21152;-90
2022/11/10 23:17:28;;;;;;;7.70;5.30;;;10.60;99.90;;;;;;1905672;75;21117;-89